createdAt,value
2022-09-14T00:05:05.725Z,15.02
2022-09-14T00:10:12.766Z,14.86
2022-09-14T00:15:20.716Z,14.74
2022-09-14T00:20:29.316Z,14.6
2022-09-14T00:25:37.228Z,14.63
2022-09-14T00:30:44.070Z,14.62
2022-09-14T00:35:52.246Z,14.46
2022-09-14T00:41:00.269Z,14.24
2022-09-14T00:46:07.604Z,14.15
2022-09-14T00:51:15.924Z,14.16
2022-09-14T00:56:23.387Z,14.18
2022-09-14T01:01:31.511Z,14.04
2022-09-14T01:06:39.510Z,13.92
2022-09-14T01:11:47.494Z,13.82
2022-09-14T01:16:55.637Z,13.88
2022-09-14T01:22:03.366Z,13.98
2022-09-14T01:27:11.317Z,14.08
2022-09-14T01:32:19.165Z,14.21
2022-09-14T01:37:27.754Z,14.29
2022-09-14T01:42:35.505Z,14.3
2022-09-14T01:47:43.573Z,14.25
2022-09-14T01:52:51.524Z,14.28
2022-09-14T01:57:59.535Z,14.21
2022-09-14T02:03:06.488Z,14.26
2022-09-14T02:08:14.454Z,14.24
2022-09-14T02:13:21.964Z,14.21
2022-09-14T02:18:30.485Z,14.16
2022-09-14T02:23:37.823Z,14.13
2022-09-14T02:28:45.648Z,14.06
2022-09-14T02:33:53.496Z,13.98
2022-09-14T02:39:01.046Z,13.98
2022-09-14T02:44:08.842Z,13.98
2022-09-14T02:49:16.618Z,13.98
2022-09-14T02:54:22.968Z,13.97
2022-09-14T02:59:30.433Z,14.04
2022-09-14T03:04:38.695Z,14.17
2022-09-14T03:09:47.521Z,14.33
2022-09-14T03:14:55.071Z,14.36
2022-09-14T03:20:02.133Z,14.42
2022-09-14T03:25:10.376Z,14.48
2022-09-14T03:30:16.841Z,14.52
2022-09-14T03:35:25.056Z,14.55
2022-09-14T03:40:33.051Z,14.65
2022-09-14T03:45:41.627Z,14.72
2022-09-14T03:50:48.598Z,14.78
2022-09-14T03:55:56.066Z,14.76
2022-09-14T04:01:43.321Z,14.68
2022-09-14T04:06:50.489Z,14.62
2022-09-14T04:11:58.228Z,14.52
2022-09-14T04:17:07.134Z,14.42
2022-09-14T04:22:15.521Z,14.36
2022-09-14T04:27:23.107Z,14.32
2022-09-14T04:32:32.632Z,14.29
2022-09-14T04:37:40.186Z,14.32
2022-09-14T04:42:48.018Z,14.36
2022-09-14T04:47:55.733Z,14.47
2022-09-14T04:53:02.934Z,14.51
2022-09-14T04:58:11.765Z,14.53
2022-09-14T05:03:19.292Z,14.63
2022-09-14T05:08:27.475Z,14.72
2022-09-14T05:13:34.938Z,14.8
2022-09-14T05:18:43.145Z,14.88
2022-09-14T05:23:49.975Z,15.02
2022-09-14T05:30:29.292Z,15.14
2022-09-14T05:35:51.436Z,15.25
2022-09-14T05:40:59.733Z,15.38
2022-09-14T05:46:08.541Z,15.49
2022-09-14T05:51:16.060Z,15.59
2022-09-14T05:56:24.277Z,15.62
2022-09-14T06:01:37.555Z,15.66
2022-09-14T06:06:44.764Z,15.69
2022-09-14T06:11:52.602Z,15.72
2022-09-14T06:17:00.318Z,15.82
2022-09-14T06:22:08.886Z,15.96
2022-09-14T06:27:16.922Z,16.1
2022-09-14T06:32:23.251Z,16.14
2022-09-14T06:37:31.128Z,16.17
2022-09-14T06:42:41.059Z,16.28
2022-09-14T06:47:48.686Z,16.4
2022-09-14T06:52:56.153Z,16.62
2022-09-14T06:58:04.025Z,16.88
2022-09-14T07:03:11.686Z,17.07
2022-09-14T07:08:19.353Z,17.53
2022-09-14T07:13:26.609Z,17.78
2022-09-14T07:18:34.510Z,17.94
2022-09-14T07:23:42.084Z,18.0
2022-09-14T07:28:48.962Z,17.86
2022-09-14T07:33:57.195Z,17.79
2022-09-14T07:39:04.891Z,17.76
2022-09-14T07:44:12.606Z,17.67
2022-09-14T07:49:20.507Z,17.54
2022-09-14T07:54:28.052Z,17.58
2022-09-14T07:59:35.289Z,17.6
2022-09-14T08:04:42.467Z,17.61
2022-09-14T08:09:51.248Z,17.75
2022-09-14T08:14:58.806Z,18.0
2022-09-14T08:20:06.605Z,18.28
2022-09-14T08:25:13.884Z,18.54
2022-09-14T08:30:21.746Z,18.6
2022-09-14T08:35:30.650Z,18.53
2022-09-14T08:40:39.147Z,18.53
2022-09-14T08:45:46.455Z,18.33
2022-09-14T08:50:54.918Z,18.14
2022-09-14T08:56:03.837Z,18.26
2022-09-14T09:01:10.957Z,18.59
2022-09-14T09:06:17.843Z,18.44
2022-09-14T09:11:25.544Z,18.28
2022-09-14T09:16:34.452Z,18.22
2022-09-14T09:21:41.337Z,18.4
2022-09-14T09:26:50.329Z,18.64
2022-09-14T09:31:58.412Z,18.81
2022-09-14T09:37:06.785Z,18.9
2022-09-14T09:42:14.035Z,19.43
2022-09-14T09:47:21.199Z,19.82
2022-09-14T09:52:28.561Z,19.98
2022-09-14T09:57:36.347Z,19.91
2022-09-14T10:02:44.461Z,19.71
2022-09-14T10:07:51.086Z,19.44
2022-09-14T10:12:58.391Z,19.12
2022-09-14T10:18:06.339Z,19.07
2022-09-14T10:23:14.412Z,19.19
2022-09-14T10:28:21.470Z,19.31
2022-09-14T10:33:29.817Z,19.69
2022-09-14T10:38:37.023Z,20.17
2022-09-14T10:43:44.221Z,20.3
2022-09-14T10:48:52.389Z,20.51
2022-09-14T10:53:59.572Z,20.56
2022-09-14T10:59:07.523Z,20.86
2022-09-14T11:04:16.173Z,21.32
2022-09-14T11:09:24.281Z,21.62
2022-09-14T11:14:33.813Z,21.75
2022-09-14T11:19:42.665Z,21.97
2022-09-14T11:24:50.526Z,22.15
2022-09-14T11:29:58.006Z,22.38
2022-09-14T11:35:12.593Z,22.58
2022-09-14T11:40:20.058Z,22.76
2022-09-14T11:45:27.900Z,23.03
2022-09-14T11:50:35.198Z,23.14
2022-09-14T11:55:41.928Z,22.82
2022-09-14T12:00:48.912Z,22.71
2022-09-14T12:05:58.659Z,22.56
2022-09-14T12:11:07.421Z,22.69
2022-09-14T12:16:16.230Z,23.33
2022-09-14T12:21:24.368Z,23.72
2022-09-14T12:27:09.658Z,24.02
2022-09-14T12:32:18.041Z,25.06
2022-09-14T12:37:31.973Z,25.5
2022-09-14T12:42:39.575Z,26.21
2022-09-14T12:47:47.443Z,26.34
2022-09-14T12:52:55.568Z,26.57
2022-09-14T12:58:04.890Z,26.54
2022-09-14T13:03:13.540Z,26.6
2022-09-14T13:08:22.549Z,27.19
2022-09-14T13:13:30.974Z,27.62
2022-09-14T13:18:38.301Z,28.38
2022-09-14T13:23:46.105Z,28.74
2022-09-14T13:28:54.504Z,28.46
2022-09-14T13:34:01.193Z,27.92
2022-09-14T13:39:09.018Z,28.04
2022-09-14T13:44:16.359Z,28.57
2022-09-14T13:49:24.695Z,28.88
2022-09-14T13:54:34.965Z,28.64
2022-09-14T13:59:44.741Z,28.88
2022-09-14T14:04:51.456Z,29.02
2022-09-14T14:09:59.270Z,29.47
2022-09-14T14:15:07.700Z,30.05
2022-09-14T14:20:16.541Z,29.12
2022-09-14T14:25:24.519Z,27.62
2022-09-14T14:30:32.838Z,27.22
2022-09-14T14:35:39.770Z,27.34
2022-09-14T14:40:46.970Z,26.9
2022-09-14T14:45:54.282Z,26.36
2022-09-14T14:51:02.426Z,25.9
2022-09-14T14:56:11.543Z,25.48
2022-09-14T15:01:18.312Z,25.04
2022-09-14T15:06:25.626Z,24.66
2022-09-14T15:11:33.840Z,24.28
2022-09-14T15:16:41.173Z,23.94
2022-09-14T15:21:49.198Z,23.6
2022-09-14T15:26:56.987Z,23.3
2022-09-14T15:32:03.444Z,23.04
2022-09-14T15:37:10.281Z,22.78
2022-09-14T15:42:17.487Z,22.49
2022-09-14T15:47:23.861Z,22.31
2022-09-14T15:52:31.578Z,22.28
2022-09-14T15:57:39.845Z,22.22
2022-09-14T16:02:47.305Z,22.14
2022-09-14T16:07:54.492Z,22.08
2022-09-14T16:13:02.445Z,22.04
2022-09-14T16:18:09.516Z,21.99
2022-09-14T16:23:16.759Z,21.86
2022-09-14T16:31:26.955Z,21.58
2022-09-14T16:36:33.229Z,21.46
2022-09-14T16:41:40.575Z,21.32
2022-09-14T16:46:47.484Z,21.19
2022-09-14T16:51:54.830Z,21.02
2022-09-14T16:57:02.058Z,20.88
2022-09-14T17:02:09.181Z,20.62
2022-09-14T17:07:16.396Z,20.39
2022-09-14T17:12:24.010Z,20.19
2022-09-14T17:17:31.102Z,19.96
2022-09-14T17:22:38.433Z,19.79
2022-09-14T17:27:46.339Z,19.65
2022-09-14T17:32:53.400Z,19.58
2022-09-14T17:38:00.585Z,19.46
2022-09-14T17:43:07.290Z,19.38
2022-09-14T17:48:20.401Z,19.32
2022-09-14T17:53:27.436Z,19.3
2022-09-14T17:58:35.310Z,19.29
2022-09-14T18:03:42.119Z,19.26
2022-09-14T18:08:49.792Z,19.28
2022-09-14T18:13:57.350Z,19.31
2022-09-14T18:19:05.169Z,19.32
2022-09-14T18:24:13.429Z,19.26
2022-09-14T18:29:22.637Z,19.31
2022-09-14T18:34:30.019Z,19.52
2022-09-14T18:39:37.773Z,19.48
2022-09-14T18:44:45.045Z,19.28
2022-09-14T18:49:53.113Z,19.16
2022-09-14T18:55:01.846Z,19.08
2022-09-14T19:00:08.543Z,19.08
2022-09-14T19:05:15.738Z,19.06
2022-09-14T19:10:23.853Z,19.03
2022-09-14T19:15:30.785Z,19.03
2022-09-14T19:20:38.829Z,19.06
2022-09-14T19:25:46.649Z,19.08
2022-09-14T19:30:54.782Z,19.08
2022-09-14T19:36:02.165Z,19.08
2022-09-14T19:41:09.974Z,19.06
2022-09-14T19:46:17.322Z,19.01
2022-09-14T19:51:25.016Z,19.04
2022-09-14T19:56:33.430Z,19.06
2022-09-14T20:01:40.726Z,19.08
2022-09-14T20:06:47.899Z,19.12
2022-09-14T20:11:55.188Z,19.03
2022-09-14T20:17:02.960Z,18.94
2022-09-14T20:22:11.406Z,18.96
2022-09-14T20:27:21.050Z,19.15
2022-09-14T20:32:29.036Z,19.15
2022-09-14T20:37:37.364Z,19.11
2022-09-14T20:42:45.862Z,19.08
2022-09-14T20:47:52.503Z,19.11
2022-09-14T20:53:00.529Z,19.15
2022-09-14T20:58:08.325Z,19.18
2022-09-14T21:03:16.979Z,19.1
2022-09-14T21:08:24.367Z,19.08
2022-09-14T21:13:32.440Z,19.12
2022-09-14T21:18:40.993Z,18.98
2022-09-14T21:23:48.330Z,18.78
2022-09-14T21:28:56.738Z,18.7
2022-09-14T21:34:09.244Z,18.58
2022-09-14T21:39:16.072Z,18.57
2022-09-14T21:44:23.865Z,18.5
2022-09-14T21:49:31.083Z,18.5
2022-09-14T21:54:37.674Z,18.65
2022-09-14T21:59:45.531Z,18.72
2022-09-14T22:04:53.362Z,18.81
2022-09-14T22:10:00.591Z,18.8
2022-09-14T22:15:08.384Z,18.88
2022-09-14T22:20:16.408Z,18.9
2022-09-14T22:25:24.197Z,18.96
2022-09-14T22:30:31.610Z,19.1
2022-09-14T22:35:39.805Z,19.0
2022-09-14T22:40:47.026Z,19.09
2022-09-14T22:45:54.230Z,19.08
2022-09-14T22:51:01.996Z,18.93
2022-09-14T22:56:09.189Z,18.79
2022-09-14T23:01:15.841Z,18.64
2022-09-14T23:06:24.757Z,18.79
2022-09-14T23:11:33.316Z,19.02
2022-09-14T23:16:41.060Z,18.98
2022-09-14T23:21:48.895Z,19.02
2022-09-14T23:26:56.719Z,19.06
2022-09-14T23:32:03.663Z,18.98
2022-09-14T23:37:10.704Z,18.83
2022-09-14T23:42:18.130Z,18.88
2022-09-14T23:47:26.331Z,18.8
2022-09-14T23:52:33.467Z,18.64
2022-09-14T23:57:41.116Z,18.82
